sensor_id;sensor_type;location;lat;lon;timestamp;pressure;altitude;pressure_sealevel;temperature;humidity
4326;BME280;58429;49.826;10.880;2023-02-03T00:00:23;99508;;;5.5;88.33
4326;BME280;58429;49.826;10.880;2023-02-03T00:01:23;99503;;;5.47;88.33
4326;BME280;58429;49.826;10.880;2023-02-03T00:02:23;99510;;;5.51;88.36
4326;BME280;58429;49.826;10.880;2023-02-03T00:03:23;99497;;;5.54;88.4
4326;BME280;58429;49.826;10.880;2023-02-03T00:04:23;99508;;;5.5;88.4
4326;BME280;58429;49.826;10.880;2023-02-03T00:05:23;99515;;;5.5;88.48
4326;BME280;58429;49.826;10.880;2023-02-03T00:06:23;99518;;;5.47;88.51
4326;BME280;58429;49.826;10.880;2023-02-03T00:07:23;99513;;;5.46;88.55
4326;BME280;58429;49.826;10.880;2023-02-03T00:08:23;99505;;;5.48;88.55
4326;BME280;58429;49.826;10.880;2023-02-03T00:09:23;99513;;;5.47;88.48
4326;BME280;58429;49.826;10.880;2023-02-03T00:10:23;99507;;;5.5;88.47
4326;BME280;58429;49.826;10.880;2023-02-03T00:11:24;99503;;;5.51;88.53
4326;BME280;58429;49.826;10.880;2023-02-03T00:12:23;99512;;;5.47;88.44
4326;BME280;58429;49.826;10.880;2023-02-03T00:13:23;99505;;;5.52;88.48
4326;BME280;58429;49.826;10.880;2023-02-03T00:14:23;99512;;;5.51;88.35
4326;BME280;58429;49.826;10.880;2023-02-03T00:15:23;99516;;;5.53;88.4
4326;BME280;58429;49.826;10.880;2023-02-03T00:16:24;99508;;;5.53;88.49
4326;BME280;58429;49.826;10.880;2023-02-03T00:17:23;99513;;;5.52;88.44
4326;BME280;58429;49.826;10.880;2023-02-03T00:18:23;99508;;;5.49;88.56
4326;BME280;58429;49.826;10.880;2023-02-03T00:19:23;99511;;;5.54;88.51
4326;BME280;58429;49.826;10.880;2023-02-03T00:20:23;99507;;;5.51;88.54
4326;BME280;58429;49.826;10.880;2023-02-03T00:21:23;99508;;;5.52;88.59
4326;BME280;58429;49.826;10.880;2023-02-03T00:22:23;99514;;;5.48;88.69
4326;BME280;58429;49.826;10.880;2023-02-03T00:23:23;99505;;;5.51;88.6
4326;BME280;58429;49.826;10.880;2023-02-03T00:24:23;99506;;;5.52;88.69
4326;BME280;58429;49.826;10.880;2023-02-03T00:25:23;99509;;;5.51;88.72
4326;BME280;58429;49.826;10.880;2023-02-03T00:26:23;99502;;;5.48;88.75
4326;BME280;58429;49.826;10.880;2023-02-03T00:27:23;99508;;;5.46;88.77
4326;BME280;58429;49.826;10.880;2023-02-03T00:28:23;99511;;;5.48;88.84
4326;BME280;58429;49.826;10.880;2023-02-03T00:29:23;99516;;;5.51;88.84
4326;BME280;58429;49.826;10.880;2023-02-03T00:30:23;99509;;;5.46;88.86
4326;BME280;58429;49.826;10.880;2023-02-03T00:31:23;99513;;;5.47;88.89
4326;BME280;58429;49.826;10.880;2023-02-03T00:32:24;99514;;;5.46;88.92
4326;BME280;58429;49.826;10.880;2023-02-03T00:33:24;99518;;;5.47;88.92
4326;BME280;58429;49.826;10.880;2023-02-03T00:34:26;99519;;;5.48;88.89
4326;BME280;58429;49.826;10.880;2023-02-03T00:35:23;99520;;;5.48;88.95
4326;BME280;58429;49.826;10.880;2023-02-03T00:36:24;99510;;;5.51;88.92
4326;BME280;58429;49.826;10.880;2023-02-03T00:37:23;99510;;;5.47;88.85
4326;BME280;58429;49.826;10.880;2023-02-03T00:38:25;99516;;;5.49;88.71
4326;BME280;58429;49.826;10.880;2023-02-03T00:39:23;99516;;;5.52;88.6
4326;BME280;58429;49.826;10.880;2023-02-03T00:40:24;99506;;;5.53;88.69
4326;BME280;58429;49.826;10.880;2023-02-03T00:41:27;99509;;;5.51;88.69
4326;BME280;58429;49.826;10.880;2023-02-03T00:42:23;99508;;;5.54;88.75
4326;BME280;58429;49.826;10.880;2023-02-03T00:43:24;99503;;;5.51;88.68
4326;BME280;58429;49.826;10.880;2023-02-03T00:44:24;99509;;;5.51;88.71
4326;BME280;58429;49.826;10.880;2023-02-03T00:45:23;99503;;;5.52;88.73
4326;BME280;58429;49.826;10.880;2023-02-03T00:46:23;99512;;;5.53;88.72
4326;BME280;58429;49.826;10.880;2023-02-03T00:47:23;99515;;;5.52;88.69
4326;BME280;58429;49.826;10.880;2023-02-03T00:48:24;99508;;;5.51;88.72
4326;BME280;58429;49.826;10.880;2023-02-03T00:49:24;99513;;;5.49;88.7
4326;BME280;58429;49.826;10.880;2023-02-03T00:50:23;99504;;;5.52;88.77
4326;BME280;58429;49.826;10.880;2023-02-03T00:51:24;99502;;;5.51;88.72
4326;BME280;58429;49.826;10.880;2023-02-03T00:52:23;99510;;;5.53;88.77
4326;BME280;58429;49.826;10.880;2023-02-03T00:53:24;99512;;;5.53;88.79
4326;BME280;58429;49.826;10.880;2023-02-03T00:54:23;99514;;;5.52;88.79
4326;BME280;58429;49.826;10.880;2023-02-03T00:55:24;99508;;;5.52;88.83
4326;BME280;58429;49.826;10.880;2023-02-03T00:56:24;99510;;;5.53;88.84
4326;BME280;58429;49.826;10.880;2023-02-03T00:57:24;99512;;;5.52;88.87
4326;BME280;58429;49.826;10.880;2023-02-03T00:58:24;99508;;;5.51;88.85
4326;BME280;58429;49.826;10.880;2023-02-03T00:59:23;99508;;;5.55;88.9
4326;BME280;58429;49.826;10.880;2023-02-03T01:00:24;99508;;;5.52;88.9
4326;BME280;58429;49.826;10.880;2023-02-03T01:01:24;99510;;;5.5;88.88
4326;BME280;58429;49.826;10.880;2023-02-03T01:02:24;99512;;;5.52;88.88
4326;BME280;58429;49.826;10.880;2023-02-03T01:03:24;99500;;;5.51;88.93
4326;BME280;58429;49.826;10.880;2023-02-03T01:04:24;99504;;;5.52;88.94
4326;BME280;58429;49.826;10.880;2023-02-03T01:05:24;99509;;;5.52;88.94
4326;BME280;58429;49.826;10.880;2023-02-03T01:06:24;99514;;;5.52;88.94
4326;BME280;58429;49.826;10.880;2023-02-03T01:07:24;99511;;;5.56;88.93
4326;BME280;58429;49.826;10.880;2023-02-03T01:08:24;99518;;;5.56;88.92
4326;BME280;58429;49.826;10.880;2023-02-03T01:09:24;99508;;;5.56;88.84
4326;BME280;58429;49.826;10.880;2023-02-03T01:10:24;99508;;;5.57;88.84
4326;BME280;58429;49.826;10.880;2023-02-03T01:11:24;99506;;;5.57;88.77
4326;BME280;58429;49.826;10.880;2023-02-03T01:12:24;99509;;;5.58;88.83
4326;BME280;58429;49.826;10.880;2023-02-03T01:13:24;99508;;;5.54;88.78
4326;BME280;58429;49.826;10.880;2023-02-03T01:14:24;99509;;;5.58;88.68
4326;BME280;58429;49.826;10.880;2023-02-03T01:15:24;99510;;;5.58;88.72
4326;BME280;58429;49.826;10.880;2023-02-03T01:16:24;99504;;;5.6;88.73
4326;BME280;58429;49.826;10.880;2023-02-03T01:17:24;99509;;;5.59;88.69
4326;BME280;58429;49.826;10.880;2023-02-03T01:18:24;99502;;;5.59;88.75
4326;BME280;58429;49.826;10.880;2023-02-03T01:19:24;99505;;;5.62;88.72
4326;BME280;58429;49.826;10.880;2023-02-03T01:20:24;99499;;;5.61;88.68
4326;BME280;58429;49.826;10.880;2023-02-03T01:21:24;99503;;;5.59;88.72
4326;BME280;58429;49.826;10.880;2023-02-03T01:22:24;99502;;;5.6;88.74
4326;BME280;58429;49.826;10.880;2023-02-03T01:23:24;99510;;;5.61;88.69
4326;BME280;58429;49.826;10.880;2023-02-03T01:24:24;99506;;;5.61;88.6
4326;BME280;58429;49.826;10.880;2023-02-03T01:25:24;99504;;;5.62;88.65
4326;BME280;58429;49.826;10.880;2023-02-03T01:26:24;99504;;;5.63;88.65
4326;BME280;58429;49.826;10.880;2023-02-03T01:27:24;99505;;;5.63;88.66
4326;BME280;58429;49.826;10.880;2023-02-03T01:28:24;99497;;;5.6;88.65
4326;BME280;58429;49.826;10.880;2023-02-03T01:29:24;99501;;;5.6;88.64
4326;BME280;58429;49.826;10.880;2023-02-03T01:30:24;99502;;;5.63;88.67
4326;BME280;58429;49.826;10.880;2023-02-03T01:31:24;99501;;;5.62;88.7
4326;BME280;58429;49.826;10.880;2023-02-03T01:32:24;99493;;;5.66;88.63
4326;BME280;58429;49.826;10.880;2023-02-03T01:33:24;99491;;;5.66;88.66
4326;BME280;58429;49.826;10.880;2023-02-03T01:34:24;99497;;;5.64;88.65
4326;BME280;58429;49.826;10.880;2023-02-03T01:35:24;99499;;;5.64;88.68
4326;BME280;58429;49.826;10.880;2023-02-03T01:36:24;99494;;;5.62;88.71
4326;BME280;58429;49.826;10.880;2023-02-03T01:37:24;99501;;;5.67;88.56
4326;BME280;58429;49.826;10.880;2023-02-03T01:38:24;99495;;;5.67;88.67
4326;BME280;58429;49.826;10.880;2023-02-03T01:39:24;99493;;;5.69;88.57
4326;BME280;58429;49.826;10.880;2023-02-03T01:40:24;99492;;;5.66;88.58
4326;BME280;58429;49.826;10.880;2023-02-03T01:41:24;99487;;;5.67;88.65
4326;BME280;58429;49.826;10.880;2023-02-03T01:42:24;99484;;;5.66;88.61
4326;BME280;58429;49.826;10.880;2023-02-03T01:43:27;99478;;;5.67;88.63
4326;BME280;58429;49.826;10.880;2023-02-03T01:44:34;99477;;;5.67;88.52
4326;BME280;58429;49.826;10.880;2023-02-03T01:45:24;99480;;;5.7;88.52
4326;BME280;58429;49.826;10.880;2023-02-03T01:46:25;99481;;;5.7;88.57
4326;BME280;58429;49.826;10.880;2023-02-03T01:47:25;99475;;;5.69;88.44
4326;BME280;58429;49.826;10.880;2023-02-03T01:48:24;99470;;;5.71;88.42
4326;BME280;58429;49.826;10.880;2023-02-03T01:49:25;99464;;;5.7;88.44
4326;BME280;58429;49.826;10.880;2023-02-03T01:50:24;99466;;;5.7;88.38
4326;BME280;58429;49.826;10.880;2023-02-03T01:51:24;99464;;;5.69;88.39
4326;BME280;58429;49.826;10.880;2023-02-03T01:52:24;99458;;;5.69;88.41
4326;BME280;58429;49.826;10.880;2023-02-03T01:53:24;99448;;;5.7;88.32
4326;BME280;58429;49.826;10.880;2023-02-03T01:54:24;99454;;;5.72;88.21
4326;BME280;58429;49.826;10.880;2023-02-03T01:55:24;99447;;;5.71;88.28
4326;BME280;58429;49.826;10.880;2023-02-03T01:56:24;99448;;;5.73;88.33
4326;BME280;58429;49.826;10.880;2023-02-03T01:57:25;99450;;;5.73;88.16
4326;BME280;58429;49.826;10.880;2023-02-03T01:58:25;99448;;;5.76;87.97
4326;BME280;58429;49.826;10.880;2023-02-03T01:59:24;99445;;;5.76;87.89
4326;BME280;58429;49.826;10.880;2023-02-03T02:00:24;99450;;;5.76;87.84
4326;BME280;58429;49.826;10.880;2023-02-03T02:01:24;99458;;;5.78;87.84
4326;BME280;58429;49.826;10.880;2023-02-03T02:02:24;99457;;;5.79;87.88
4326;BME280;58429;49.826;10.880;2023-02-03T02:03:25;99460;;;5.77;87.91
4326;BME280;58429;49.826;10.880;2023-02-03T02:04:25;99456;;;5.79;87.82
4326;BME280;58429;49.826;10.880;2023-02-03T02:05:24;99448;;;5.78;87.84
4326;BME280;58429;49.826;10.880;2023-02-03T02:06:24;99448;;;5.79;87.7
4326;BME280;58429;49.826;10.880;2023-02-03T02:07:24;99448;;;5.79;87.84
4326;BME280;58429;49.826;10.880;2023-02-03T02:08:24;99444;;;5.78;87.81
4326;BME280;58429;49.826;10.880;2023-02-03T02:09:24;99445;;;5.81;87.86
4326;BME280;58429;49.826;10.880;2023-02-03T02:10:24;99439;;;5.8;87.84
4326;BME280;58429;49.826;10.880;2023-02-03T02:11:24;99436;;;5.78;87.86
4326;BME280;58429;49.826;10.880;2023-02-03T02:12:24;99436;;;5.76;87.91
4326;BME280;58429;49.826;10.880;2023-02-03T02:13:24;99441;;;5.78;87.91
4326;BME280;58429;49.826;10.880;2023-02-03T02:14:24;99437;;;5.76;87.9
4326;BME280;58429;49.826;10.880;2023-02-03T02:15:25;99439;;;5.76;87.91
4326;BME280;58429;49.826;10.880;2023-02-03T02:16:26;99438;;;5.78;87.84
4326;BME280;58429;49.826;10.880;2023-02-03T02:17:29;99438;;;5.76;87.92
4326;BME280;58429;49.826;10.880;2023-02-03T02:18:29;99437;;;5.77;87.93
4326;BME280;58429;49.826;10.880;2023-02-03T02:19:35;99434;;;5.77;87.78
4326;BME280;58429;49.826;10.880;2023-02-03T02:20:29;99438;;;5.78;87.82
4326;BME280;58429;49.826;10.880;2023-02-03T02:21:37;99436;;;5.8;87.75
4326;BME280;58429;49.826;10.880;2023-02-03T02:22:24;99437;;;5.76;87.71
4326;BME280;58429;49.826;10.880;2023-02-03T02:23:33;99441;;;5.78;87.58
4326;BME280;58429;49.826;10.880;2023-02-03T02:24:29;99440;;;5.78;87.77
4326;BME280;58429;49.826;10.880;2023-02-03T02:25:29;99437;;;5.77;87.72
4326;BME280;58429;49.826;10.880;2023-02-03T02:26:33;99437;;;5.78;87.59
4326;BME280;58429;49.826;10.880;2023-02-03T02:27:28;99446;;;5.81;87.65
4326;BME280;58429;49.826;10.880;2023-02-03T02:28:39;99445;;;5.77;87.71
4326;BME280;58429;49.826;10.880;2023-02-03T02:30:29;99452;;;5.77;87.63
4326;BME280;58429;49.826;10.880;2023-02-03T02:31:36;99455;;;5.78;87.66
4326;BME280;58429;49.826;10.880;2023-02-03T02:32:27;99441;;;5.78;87.72
4326;BME280;58429;49.826;10.880;2023-02-03T02:33:26;99455;;;5.79;87.54
4326;BME280;58429;49.826;10.880;2023-02-03T02:34:26;99446;;;5.77;87.5
4326;BME280;58429;49.826;10.880;2023-02-03T02:35:28;99444;;;5.81;87.52
4326;BME280;58429;49.826;10.880;2023-02-03T02:36:25;99447;;;5.82;87.52
4326;BME280;58429;49.826;10.880;2023-02-03T02:37:25;99444;;;5.79;87.52
4326;BME280;58429;49.826;10.880;2023-02-03T02:38:30;99448;;;5.82;87.41
4326;BME280;58429;49.826;10.880;2023-02-03T02:39:29;99440;;;5.79;87.39
4326;BME280;58429;49.826;10.880;2023-02-03T02:40:27;99441;;;5.82;87.35
4326;BME280;58429;49.826;10.880;2023-02-03T02:41:25;99439;;;5.83;87.31
4326;BME280;58429;49.826;10.880;2023-02-03T02:42:26;99442;;;5.83;87.22
4326;BME280;58429;49.826;10.880;2023-02-03T02:43:25;99435;;;5.85;87.22
4326;BME280;58429;49.826;10.880;2023-02-03T02:44:24;99430;;;5.83;87.36
4326;BME280;58429;49.826;10.880;2023-02-03T02:45:25;99435;;;5.83;87.41
4326;BME280;58429;49.826;10.880;2023-02-03T02:46:26;99432;;;5.83;87.39
4326;BME280;58429;49.826;10.880;2023-02-03T02:47:24;99433;;;5.8;87.4
4326;BME280;58429;49.826;10.880;2023-02-03T02:48:25;99430;;;5.84;87.43
4326;BME280;58429;49.826;10.880;2023-02-03T02:49:25;99433;;;5.83;87.45
4326;BME280;58429;49.826;10.880;2023-02-03T02:50:25;99436;;;5.83;87.45
4326;BME280;58429;49.826;10.880;2023-02-03T02:51:24;99443;;;5.83;87.36
4326;BME280;58429;49.826;10.880;2023-02-03T02:52:24;99437;;;5.82;87.35
4326;BME280;58429;49.826;10.880;2023-02-03T02:53:25;99437;;;5.83;87.35
4326;BME280;58429;49.826;10.880;2023-02-03T02:54:24;99450;;;5.82;87.53
4326;BME280;58429;49.826;10.880;2023-02-03T02:55:25;99447;;;5.81;87.62
4326;BME280;58429;49.826;10.880;2023-02-03T02:56:24;99442;;;5.81;87.6
4326;BME280;58429;49.826;10.880;2023-02-03T02:57:24;99441;;;5.82;87.65
4326;BME280;58429;49.826;10.880;2023-02-03T02:58:24;99443;;;5.82;87.63
4326;BME280;58429;49.826;10.880;2023-02-03T02:59:24;99446;;;5.78;87.73
4326;BME280;58429;49.826;10.880;2023-02-03T03:00:24;99441;;;5.78;87.72
4326;BME280;58429;49.826;10.880;2023-02-03T03:01:24;99446;;;5.81;87.51
4326;BME280;58429;49.826;10.880;2023-02-03T03:02:30;99444;;;5.81;87.49
4326;BME280;58429;49.826;10.880;2023-02-03T03:03:24;99442;;;5.84;87.55
4326;BME280;58429;49.826;10.880;2023-02-03T03:04:25;99440;;;5.84;87.38
4326;BME280;58429;49.826;10.880;2023-02-03T03:05:24;99437;;;5.85;87.4
4326;BME280;58429;49.826;10.880;2023-02-03T03:06:24;99435;;;5.85;87.25
4326;BME280;58429;49.826;10.880;2023-02-03T03:07:24;99434;;;5.85;87.31
4326;BME280;58429;49.826;10.880;2023-02-03T03:08:24;99431;;;5.85;87.25
4326;BME280;58429;49.826;10.880;2023-02-03T03:09:25;99428;;;5.85;87.24
4326;BME280;58429;49.826;10.880;2023-02-03T03:10:24;99423;;;5.86;87.29
4326;BME280;58429;49.826;10.880;2023-02-03T03:11:24;99414;;;5.86;87.23
4326;BME280;58429;49.826;10.880;2023-02-03T03:12:26;99419;;;5.85;87.24
4326;BME280;58429;49.826;10.880;2023-02-03T03:13:24;99428;;;5.86;87.26
4326;BME280;58429;49.826;10.880;2023-02-03T03:14:24;99430;;;5.87;87.32
4326;BME280;58429;49.826;10.880;2023-02-03T03:15:25;99437;;;5.86;87.3
4326;BME280;58429;49.826;10.880;2023-02-03T03:16:25;99441;;;5.84;87.32
4326;BME280;58429;49.826;10.880;2023-02-03T03:17:25;99442;;;5.86;87.28
4326;BME280;58429;49.826;10.880;2023-02-03T03:18:26;99439;;;5.86;87.29
4326;BME280;58429;49.826;10.880;2023-02-03T03:19:25;99445;;;5.88;87.26
4326;BME280;58429;49.826;10.880;2023-02-03T03:20:24;99444;;;5.87;87.09
4326;BME280;58429;49.826;10.880;2023-02-03T03:21:24;99445;;;5.86;87.17
4326;BME280;58429;49.826;10.880;2023-02-03T03:22:26;99454;;;5.88;87.13
4326;BME280;58429;49.826;10.880;2023-02-03T03:23:25;99443;;;5.9;87.14
4326;BME280;58429;49.826;10.880;2023-02-03T03:24:25;99443;;;5.92;87.12
4326;BME280;58429;49.826;10.880;2023-02-03T03:25:27;99451;;;5.89;87.2
4326;BME280;58429;49.826;10.880;2023-02-03T03:26:26;99447;;;5.9;87.21
4326;BME280;58429;49.826;10.880;2023-02-03T03:27:25;99452;;;5.86;87.28
4326;BME280;58429;49.826;10.880;2023-02-03T03:28:26;99462;;;5.86;87.37
4326;BME280;58429;49.826;10.880;2023-02-03T03:29:25;99466;;;5.86;87.29
4326;BME280;58429;49.826;10.880;2023-02-03T03:30:24;99472;;;5.87;87.21
4326;BME280;58429;49.826;10.880;2023-02-03T03:31:24;99467;;;5.89;87.18
4326;BME280;58429;49.826;10.880;2023-02-03T03:32:24;99478;;;5.9;87.21
4326;BME280;58429;49.826;10.880;2023-02-03T03:33:24;99468;;;5.9;87.14
4326;BME280;58429;49.826;10.880;2023-02-03T03:34:24;99476;;;5.91;87.12
4326;BME280;58429;49.826;10.880;2023-02-03T03:35:27;99465;;;5.94;87.19
4326;BME280;58429;49.826;10.880;2023-02-03T03:36:25;99475;;;5.93;87.27
4326;BME280;58429;49.826;10.880;2023-02-03T03:37:26;99463;;;5.91;87.21
4326;BME280;58429;49.826;10.880;2023-02-03T03:38:26;99462;;;5.9;87.24
4326;BME280;58429;49.826;10.880;2023-02-03T03:39:25;99460;;;5.9;87.28
4326;BME280;58429;49.826;10.880;2023-02-03T03:40:25;99462;;;5.91;87.12
4326;BME280;58429;49.826;10.880;2023-02-03T03:41:26;99454;;;5.92;87.03
4326;BME280;58429;49.826;10.880;2023-02-03T03:42:25;99460;;;5.9;87.01
4326;BME280;58429;49.826;10.880;2023-02-03T03:43:25;99467;;;5.96;87.05
4326;BME280;58429;49.826;10.880;2023-02-03T03:44:25;99452;;;5.97;87.08
4326;BME280;58429;49.826;10.880;2023-02-03T03:45:25;99461;;;5.96;87.09
4326;BME280;58429;49.826;10.880;2023-02-03T03:46:25;99464;;;5.96;86.98
4326;BME280;58429;49.826;10.880;2023-02-03T03:47:26;99462;;;5.95;86.99
4326;BME280;58429;49.826;10.880;2023-02-03T03:48:25;99466;;;5.94;86.9
4326;BME280;58429;49.826;10.880;2023-02-03T03:49:24;99457;;;5.97;86.91
4326;BME280;58429;49.826;10.880;2023-02-03T03:50:26;99455;;;5.99;86.91
4326;BME280;58429;49.826;10.880;2023-02-03T03:51:25;99448;;;6;86.94
4326;BME280;58429;49.826;10.880;2023-02-03T03:52:25;99448;;;5.98;86.94
4326;BME280;58429;49.826;10.880;2023-02-03T03:53:24;99442;;;5.96;86.95
4326;BME280;58429;49.826;10.880;2023-02-03T03:54:24;99443;;;5.98;87.01
4326;BME280;58429;49.826;10.880;2023-02-03T03:55:24;99442;;;5.94;87
4326;BME280;58429;49.826;10.880;2023-02-03T03:56:24;99459;;;5.95;86.96
4326;BME280;58429;49.826;10.880;2023-02-03T03:57:25;99450;;;5.98;86.83
4326;BME280;58429;49.826;10.880;2023-02-03T03:58:25;99457;;;6.03;86.75
4326;BME280;58429;49.826;10.880;2023-02-03T03:59:25;99462;;;6.01;86.69
4326;BME280;58429;49.826;10.880;2023-02-03T04:00:24;99459;;;6.03;86.73
4326;BME280;58429;49.826;10.880;2023-02-03T04:01:24;99457;;;6.02;86.75
4326;BME280;58429;49.826;10.880;2023-02-03T04:02:24;99450;;;6;86.74
4326;BME280;58429;49.826;10.880;2023-02-03T04:03:26;99454;;;6.02;86.69
4326;BME280;58429;49.826;10.880;2023-02-03T04:04:24;99453;;;5.99;86.74
4326;BME280;58429;49.826;10.880;2023-02-03T04:05:24;99456;;;5.98;86.79
4326;BME280;58429;49.826;10.880;2023-02-03T04:06:24;99448;;;6.01;86.79
4326;BME280;58429;49.826;10.880;2023-02-03T04:07:24;99457;;;6;86.76
4326;BME280;58429;49.826;10.880;2023-02-03T04:08:24;99448;;;6;86.73
4326;BME280;58429;49.826;10.880;2023-02-03T04:09:24;99448;;;5.97;86.66
4326;BME280;58429;49.826;10.880;2023-02-03T04:10:26;99446;;;5.98;86.7
4326;BME280;58429;49.826;10.880;2023-02-03T04:11:24;99442;;;5.99;86.82
4326;BME280;58429;49.826;10.880;2023-02-03T04:12:24;99438;;;5.98;86.78
4326;BME280;58429;49.826;10.880;2023-02-03T04:13:24;99439;;;6.02;86.69
4326;BME280;58429;49.826;10.880;2023-02-03T04:14:24;99441;;;5.99;86.77
4326;BME280;58429;49.826;10.880;2023-02-03T04:15:24;99440;;;6.03;86.83
4326;BME280;58429;49.826;10.880;2023-02-03T04:16:24;99435;;;5.98;86.84
4326;BME280;58429;49.826;10.880;2023-02-03T04:17:24;99430;;;6.02;86.7
4326;BME280;58429;49.826;10.880;2023-02-03T04:18:24;99439;;;6;86.79
4326;BME280;58429;49.826;10.880;2023-02-03T04:19:24;99440;;;6.01;86.87
4326;BME280;58429;49.826;10.880;2023-02-03T04:20:24;99432;;;5.96;86.92
4326;BME280;58429;49.826;10.880;2023-02-03T04:21:24;99435;;;5.97;87.13
4326;BME280;58429;49.826;10.880;2023-02-03T04:22:24;99437;;;6.02;86.87
4326;BME280;58429;49.826;10.880;2023-02-03T04:23:24;99431;;;5.97;87
4326;BME280;58429;49.826;10.880;2023-02-03T04:24:24;99430;;;6.01;86.89
4326;BME280;58429;49.826;10.880;2023-02-03T04:25:24;99428;;;6.02;86.93
4326;BME280;58429;49.826;10.880;2023-02-03T04:26:24;99421;;;5.99;86.95
4326;BME280;58429;49.826;10.880;2023-02-03T04:27:24;99419;;;5.99;87.16
4326;BME280;58429;49.826;10.880;2023-02-03T04:28:24;99412;;;5.98;87.19
4326;BME280;58429;49.826;10.880;2023-02-03T04:29:24;99410;;;5.98;87.14
4326;BME280;58429;49.826;10.880;2023-02-03T04:30:24;99410;;;5.99;87.1
4326;BME280;58429;49.826;10.880;2023-02-03T04:31:24;99417;;;5.98;87.19
4326;BME280;58429;49.826;10.880;2023-02-03T04:32:24;99405;;;5.92;87.2
4326;BME280;58429;49.826;10.880;2023-02-03T04:33:24;99398;;;5.95;87.2
4326;BME280;58429;49.826;10.880;2023-02-03T04:34:24;99397;;;5.96;87.34
4326;BME280;58429;49.826;10.880;2023-02-03T04:35:24;99395;;;5.94;87.42
4326;BME280;58429;49.826;10.880;2023-02-03T04:36:24;99391;;;5.91;87.32
4326;BME280;58429;49.826;10.880;2023-02-03T04:37:24;99398;;;5.91;87.42
4326;BME280;58429;49.826;10.880;2023-02-03T04:38:24;99395;;;5.94;87.51
4326;BME280;58429;49.826;10.880;2023-02-03T04:39:24;99405;;;5.89;87.4
4326;BME280;58429;49.826;10.880;2023-02-03T04:40:24;99407;;;5.89;87.29
4326;BME280;58429;49.826;10.880;2023-02-03T04:41:24;99411;;;5.91;87.21
4326;BME280;58429;49.826;10.880;2023-02-03T04:42:24;99426;;;5.92;87.29
4326;BME280;58429;49.826;10.880;2023-02-03T04:43:24;99418;;;5.92;87.3
4326;BME280;58429;49.826;10.880;2023-02-03T04:44:24;99408;;;5.9;87.37
4326;BME280;58429;49.826;10.880;2023-02-03T04:45:24;99412;;;5.89;87.39
4326;BME280;58429;49.826;10.880;2023-02-03T04:46:24;99411;;;5.9;87.46
4326;BME280;58429;49.826;10.880;2023-02-03T04:47:24;99419;;;5.9;87.41
4326;BME280;58429;49.826;10.880;2023-02-03T04:48:24;99425;;;5.89;87.44
4326;BME280;58429;49.826;10.880;2023-02-03T04:49:24;99421;;;5.85;87.36
4326;BME280;58429;49.826;10.880;2023-02-03T04:50:24;99432;;;5.87;87.51
4326;BME280;58429;49.826;10.880;2023-02-03T04:51:24;99425;;;5.86;87.46
4326;BME280;58429;49.826;10.880;2023-02-03T04:52:24;99423;;;5.9;87.56
4326;BME280;58429;49.826;10.880;2023-02-03T04:53:24;99419;;;5.87;87.75
4326;BME280;58429;49.826;10.880;2023-02-03T04:54:24;99413;;;5.86;87.75
4326;BME280;58429;49.826;10.880;2023-02-03T04:55:24;99405;;;5.86;87.68
4326;BME280;58429;49.826;10.880;2023-02-03T04:56:24;99405;;;5.88;87.74
4326;BME280;58429;49.826;10.880;2023-02-03T04:57:24;99411;;;5.86;87.82
4326;BME280;58429;49.826;10.880;2023-02-03T04:58:24;99414;;;5.84;87.95
4326;BME280;58429;49.826;10.880;2023-02-03T04:59:24;99414;;;5.85;87.99
4326;BME280;58429;49.826;10.880;2023-02-03T05:00:24;99409;;;5.86;87.85
4326;BME280;58429;49.826;10.880;2023-02-03T05:01:24;99418;;;5.86;87.94
4326;BME280;58429;49.826;10.880;2023-02-03T05:02:24;99432;;;5.86;88.01
4326;BME280;58429;49.826;10.880;2023-02-03T05:03:24;99429;;;5.84;88.1
4326;BME280;58429;49.826;10.880;2023-02-03T05:04:24;99419;;;5.84;88.17
4326;BME280;58429;49.826;10.880;2023-02-03T05:05:24;99428;;;5.83;88.3
4326;BME280;58429;49.826;10.880;2023-02-03T05:06:25;99426;;;5.83;88.31
4326;BME280;58429;49.826;10.880;2023-02-03T05:07:24;99420;;;5.83;88.34
4326;BME280;58429;49.826;10.880;2023-02-03T05:08:24;99420;;;5.84;88.47
4326;BME280;58429;49.826;10.880;2023-02-03T05:09:25;99426;;;5.84;88.47
4326;BME280;58429;49.826;10.880;2023-02-03T05:10:24;99430;;;5.81;88.49
4326;BME280;58429;49.826;10.880;2023-02-03T05:11:24;99440;;;5.81;88.56
4326;BME280;58429;49.826;10.880;2023-02-03T05:12:24;99437;;;5.81;88.59
4326;BME280;58429;49.826;10.880;2023-02-03T05:13:24;99445;;;5.81;88.37
4326;BME280;58429;49.826;10.880;2023-02-03T05:14:24;99436;;;5.82;88.45
4326;BME280;58429;49.826;10.880;2023-02-03T05:15:24;99442;;;5.83;88.45
4326;BME280;58429;49.826;10.880;2023-02-03T05:16:24;99443;;;5.83;88.59
4326;BME280;58429;49.826;10.880;2023-02-03T05:17:24;99443;;;5.85;88.58
4326;BME280;58429;49.826;10.880;2023-02-03T05:18:24;99440;;;5.85;88.45
4326;BME280;58429;49.826;10.880;2023-02-03T05:19:24;99447;;;5.85;88.4
4326;BME280;58429;49.826;10.880;2023-02-03T05:20:24;99452;;;5.86;88.5
4326;BME280;58429;49.826;10.880;2023-02-03T05:21:24;99445;;;5.83;88.34
4326;BME280;58429;49.826;10.880;2023-02-03T05:22:24;99445;;;5.83;88.34
4326;BME280;58429;49.826;10.880;2023-02-03T05:23:24;99439;;;5.85;88.37
4326;BME280;58429;49.826;10.880;2023-02-03T05:24:24;99442;;;5.85;88.36
4326;BME280;58429;49.826;10.880;2023-02-03T05:25:24;99451;;;5.86;88.36
4326;BME280;58429;49.826;10.880;2023-02-03T05:26:24;99448;;;5.85;88.41
4326;BME280;58429;49.826;10.880;2023-02-03T05:27:24;99458;;;5.82;88.52
4326;BME280;58429;49.826;10.880;2023-02-03T05:28:24;99452;;;5.84;88.5
4326;BME280;58429;49.826;10.880;2023-02-03T05:29:24;99455;;;5.84;88.48
4326;BME280;58429;49.826;10.880;2023-02-03T05:30:24;99454;;;5.84;88.51
4326;BME280;58429;49.826;10.880;2023-02-03T05:31:24;99454;;;5.83;88.52
4326;BME280;58429;49.826;10.880;2023-02-03T05:32:24;99445;;;5.82;88.64
4326;BME280;58429;49.826;10.880;2023-02-03T05:33:24;99438;;;5.82;88.63
4326;BME280;58429;49.826;10.880;2023-02-03T05:34:24;99444;;;5.79;88.71
4326;BME280;58429;49.826;10.880;2023-02-03T05:35:24;99444;;;5.8;88.74
4326;BME280;58429;49.826;10.880;2023-02-03T05:36:24;99440;;;5.82;88.8
4326;BME280;58429;49.826;10.880;2023-02-03T05:37:24;99447;;;5.81;88.76